createdAt,value
2022-12-14T00:00:09.082Z,82.02514648
2022-12-14T00:01:09.719Z,81.70776367
2022-12-14T00:02:10.221Z,81.60400391
2022-12-14T00:03:11.962Z,81.50024414
2022-12-14T00:04:12.430Z,81.50024414
2022-12-14T00:05:12.962Z,81.640625
2022-12-14T00:06:13.799Z,81.85424805
2022-12-14T00:07:14.270Z,81.85424805
2022-12-14T00:08:14.876Z,81.640625
2022-12-14T00:09:15.423Z,81.640625
2022-12-14T00:10:16.045Z,81.85424805
2022-12-14T00:11:16.638Z,82.06176758
2022-12-14T00:12:17.143Z,82.06176758
2022-12-14T00:13:18.763Z,82.20214844
2022-12-14T00:14:19.349Z,82.20214844
2022-12-14T00:15:20.505Z,82.20214844
2022-12-14T00:16:21.248Z,82.31201172
2022-12-14T00:17:21.663Z,82.41577148
2022-12-14T00:18:22.777Z,82.41577148
2022-12-14T00:19:23.113Z,82.31201172
2022-12-14T00:20:54.629Z,82.31201172
2022-12-14T00:21:55.964Z,82.31201172
2022-12-14T00:22:56.411Z,82.31201172
2022-12-14T00:23:57.866Z,82.41577148
2022-12-14T00:24:58.404Z,82.51953125
2022-12-14T00:25:59.070Z,82.51953125
2022-12-14T00:26:59.689Z,82.51953125
2022-12-14T00:28:00.276Z,82.41577148
2022-12-14T00:29:00.820Z,82.31201172
2022-12-14T00:30:01.317Z,82.41577148
2022-12-14T00:31:02.221Z,82.41577148
2022-12-14T00:32:02.717Z,82.51953125
2022-12-14T00:33:04.405Z,82.41577148
2022-12-14T00:34:04.928Z,82.41577148
2022-12-14T00:35:05.499Z,82.41577148
2022-12-14T00:36:06.051Z,82.41577148
2022-12-14T00:37:07.404Z,82.31201172
2022-12-14T00:38:08.062Z,82.31201172
2022-12-14T00:39:08.696Z,82.31201172
2022-12-14T00:40:09.387Z,82.20214844
2022-12-14T00:41:09.884Z,82.20214844
2022-12-14T00:42:10.416Z,82.20214844
2022-12-14T00:43:11.888Z,82.31201172
2022-12-14T00:44:12.455Z,82.31201172
2022-12-14T00:45:13.135Z,82.09838867
2022-12-14T00:46:14.676Z,81.99462891
2022-12-14T00:47:15.192Z,81.89086914
2022-12-14T00:48:15.852Z,81.89086914
2022-12-14T00:49:16.456Z,81.89086914
2022-12-14T00:50:17.049Z,81.99462891
2022-12-14T00:51:17.611Z,82.09838867
2022-12-14T00:52:18.261Z,82.09838867
2022-12-14T00:53:19.368Z,82.09838867
2022-12-14T00:54:19.940Z,82.20214844
2022-12-14T00:55:20.587Z,82.31201172
2022-12-14T00:56:21.166Z,82.41577148
2022-12-14T00:57:21.680Z,82.51953125
2022-12-14T00:58:22.285Z,82.62329102
2022-12-14T00:59:27.215Z,82.62329102
2022-12-14T01:00:54.260Z,82.48291016
2022-12-14T01:01:55.024Z,82.37915039
2022-12-14T01:02:55.510Z,82.37915039
2022-12-14T01:03:56.830Z,82.26928711
2022-12-14T01:04:57.257Z,82.06176758
2022-12-14T01:05:57.835Z,81.95800781
2022-12-14T01:06:58.879Z,81.85424805
2022-12-14T01:07:59.555Z,81.95800781
2022-12-14T01:09:00.120Z,81.95800781
2022-12-14T01:10:00.701Z,81.95800781
2022-12-14T01:11:01.267Z,81.85424805
2022-12-14T01:12:02.373Z,81.75048828
2022-12-14T01:13:03.058Z,81.78710938
2022-12-14T01:14:04.121Z,81.99462891
2022-12-14T01:15:04.613Z,82.09838867
2022-12-14T01:16:05.967Z,82.20214844
2022-12-14T01:17:06.371Z,82.20214844
2022-12-14T01:18:07.159Z,82.31201172
2022-12-14T01:19:07.570Z,82.20214844
2022-12-14T01:20:08.197Z,82.31201172
2022-12-14T01:21:09.370Z,82.20214844
2022-12-14T01:22:09.895Z,81.89086914
2022-12-14T01:23:11.351Z,81.67724609
2022-12-14T01:24:11.856Z,81.57348633
2022-12-14T01:25:13.396Z,81.67724609
2022-12-14T01:26:14.002Z,81.78710938
2022-12-14T01:27:14.641Z,81.89086914
2022-12-14T01:28:15.259Z,81.99462891
2022-12-14T01:29:15.824Z,82.20214844
2022-12-14T01:30:16.442Z,82.20214844
2022-12-14T01:31:17.192Z,82.31201172
2022-12-14T01:32:17.736Z,82.41577148
2022-12-14T01:33:18.886Z,82.41577148
2022-12-14T01:34:19.564Z,82.31201172
2022-12-14T01:35:20.109Z,82.31201172
2022-12-14T01:36:20.724Z,82.41577148
2022-12-14T01:37:21.229Z,82.41577148
2022-12-14T01:38:21.766Z,82.31201172
2022-12-14T01:39:22.765Z,82.31201172
2022-12-14T01:40:54.245Z,82.31201172
2022-12-14T01:41:54.767Z,82.31201172
2022-12-14T01:42:55.368Z,82.20214844
2022-12-14T01:43:56.646Z,82.20214844
2022-12-14T01:44:57.112Z,82.09838867
2022-12-14T01:45:58.356Z,82.20214844
2022-12-14T01:46:58.908Z,82.20214844
2022-12-14T01:47:59.425Z,82.09838867
2022-12-14T01:49:00.124Z,82.31201172
2022-12-14T01:50:00.628Z,82.31201172
2022-12-14T01:51:01.222Z,82.41577148
2022-12-14T01:52:01.811Z,82.62329102
2022-12-14T01:53:02.314Z,82.72705078
2022-12-14T01:54:03.858Z,82.65991211
2022-12-14T01:55:04.315Z,82.87353516
2022-12-14T01:56:05.484Z,83.08105469
2022-12-14T01:57:06.079Z,83.28857422
2022-12-14T01:58:06.577Z,83.60595703
2022-12-14T01:59:07.127Z,83.92333984
2022-12-14T02:00:07.885Z,83.92333984
2022-12-14T02:01:08.340Z,83.92333984
2022-12-14T02:02:09.061Z,83.92333984
2022-12-14T02:03:09.568Z,83.81347656
2022-12-14T02:04:10.818Z,83.46557617
2022-12-14T02:05:11.298Z,83.14819336
2022-12-14T02:06:12.018Z,82.94067383
2022-12-14T02:07:12.608Z,82.72705078
2022-12-14T02:08:13.091Z,82.62329102
2022-12-14T02:09:13.870Z,82.76367188
2022-12-14T02:10:14.358Z,82.97729492
2022-12-14T02:11:14.995Z,83.08105469
2022-12-14T02:12:15.549Z,83.18481445
2022-12-14T02:13:16.050Z,83.28857422
2022-12-14T02:14:17.293Z,83.50219727
2022-12-14T02:15:17.812Z,83.60595703
2022-12-14T02:16:18.996Z,83.7097168
2022-12-14T02:17:19.562Z,83.60595703
2022-12-14T02:18:20.063Z,83.3984375
2022-12-14T02:19:20.770Z,83.50219727
2022-12-14T02:20:21.225Z,83.50219727
2022-12-14T02:21:21.829Z,83.81347656
2022-12-14T02:22:53.030Z,83.81347656
2022-12-14T02:23:54.360Z,84.02709961
2022-12-14T02:24:54.861Z,83.81347656
2022-12-14T02:25:55.476Z,83.60595703
2022-12-14T02:26:56.073Z,83.50219727
2022-12-14T02:27:56.625Z,83.3984375
2022-12-14T02:28:57.288Z,83.18481445
2022-12-14T02:29:57.819Z,83.04443359
2022-12-14T02:30:58.431Z,82.83081055
2022-12-14T02:31:59.860Z,82.83081055
2022-12-14T02:33:00.531Z,82.72705078
2022-12-14T02:34:01.866Z,82.72705078
2022-12-14T02:35:02.519Z,82.62329102
2022-12-14T02:36:03.126Z,82.72705078
2022-12-14T02:37:03.651Z,82.72705078
2022-12-14T02:38:04.348Z,82.41577148
2022-12-14T02:39:04.848Z,82.09838867
2022-12-14T02:40:05.397Z,82.09838867
2022-12-14T02:41:05.985Z,82.20214844
2022-12-14T02:42:06.493Z,82.41577148
2022-12-14T02:43:07.092Z,82.51953125
2022-12-14T02:44:08.424Z,82.62329102
2022-12-14T02:45:09.108Z,82.51953125
2022-12-14T02:46:09.903Z,82.31201172
2022-12-14T02:47:10.382Z,82.20214844
2022-12-14T02:48:10.997Z,82.31201172
2022-12-14T02:49:11.567Z,82.31201172
2022-12-14T02:50:12.273Z,82.20214844
2022-12-14T02:51:12.850Z,82.20214844
2022-12-14T02:52:13.383Z,82.20214844
2022-12-14T02:53:14.006Z,82.20214844
2022-12-14T02:54:15.123Z,82.31201172
2022-12-14T02:55:15.752Z,82.31201172
2022-12-14T02:56:16.864Z,82.09838867
2022-12-14T02:57:17.539Z,82.09838867
2022-12-14T02:58:18.110Z,81.99462891
2022-12-14T02:59:18.616Z,81.99462891
2022-12-14T03:00:19.282Z,81.78710938
2022-12-14T03:01:19.832Z,81.89086914
2022-12-14T03:02:20.547Z,81.89086914
2022-12-14T03:03:21.021Z,81.99462891
2022-12-14T03:04:52.474Z,82.09838867
2022-12-14T03:05:53.031Z,82.09838867
2022-12-14T03:06:53.667Z,82.09838867
2022-12-14T03:07:54.281Z,82.09838867
2022-12-14T03:08:54.844Z,82.31201172
2022-12-14T03:09:55.424Z,82.31201172
2022-12-14T03:10:55.975Z,82.31201172
2022-12-14T03:11:56.608Z,82.41577148
2022-12-14T03:12:57.183Z,82.51953125
2022-12-14T03:13:58.351Z,82.51953125
2022-12-14T03:14:58.963Z,82.51953125
2022-12-14T03:15:59.550Z,82.41577148
2022-12-14T03:17:00.733Z,82.41577148
2022-12-14T03:18:01.253Z,82.31201172
2022-12-14T03:19:01.962Z,82.31201172
2022-12-14T03:20:02.557Z,82.41577148
2022-12-14T03:21:03.128Z,82.41577148
2022-12-14T03:22:03.760Z,82.26928711
2022-12-14T03:23:04.253Z,82.26928711
2022-12-14T03:24:04.825Z,82.16552734
2022-12-14T03:25:06.171Z,82.16552734
2022-12-14T03:26:06.816Z,82.16552734
2022-12-14T03:27:07.277Z,82.06176758
2022-12-14T03:28:07.844Z,81.95800781
2022-12-14T03:29:08.460Z,81.85424805
2022-12-14T03:30:08.943Z,81.85424805
2022-12-14T03:31:09.738Z,81.85424805
2022-12-14T03:32:10.166Z,81.95800781
2022-12-14T03:33:10.731Z,82.06176758
2022-12-14T03:34:13.495Z,82.16552734
2022-12-14T03:35:12.366Z,82.16552734
2022-12-14T03:36:13.113Z,82.26928711
2022-12-14T03:37:13.635Z,82.06176758
2022-12-14T03:38:14.287Z,82.06176758
2022-12-14T03:39:15.849Z,82.16552734
2022-12-14T03:40:16.359Z,82.16552734
2022-12-14T03:41:17.005Z,82.16552734
2022-12-14T03:42:17.495Z,81.85424805
2022-12-14T03:43:18.192Z,81.53686523
2022-12-14T03:44:19.340Z,81.53686523
2022-12-14T03:45:19.863Z,81.53686523
2022-12-14T03:46:20.530Z,81.640625
2022-12-14T03:47:51.964Z,81.640625
2022-12-14T03:48:52.669Z,81.640625
2022-12-14T03:49:53.190Z,81.75048828
2022-12-14T03:50:53.836Z,81.85424805
2022-12-14T03:51:54.367Z,81.85424805
2022-12-14T03:52:54.975Z,81.85424805
2022-12-14T03:53:55.517Z,81.85424805
2022-12-14T03:54:56.646Z,81.95800781
2022-12-14T03:55:57.377Z,81.85424805
2022-12-14T03:56:57.917Z,81.85424805
2022-12-14T03:57:58.399Z,81.70776367
2022-12-14T03:58:58.986Z,81.60400391
2022-12-14T03:59:59.508Z,81.60400391
2022-12-14T04:01:00.199Z,81.60400391
2022-12-14T04:02:00.929Z,81.70776367
2022-12-14T04:03:01.483Z,81.50024414
2022-12-14T04:04:01.979Z,81.29272461
2022-12-14T04:05:03.207Z,81.43310547
2022-12-14T04:06:03.812Z,81.640625
2022-12-14T04:07:04.407Z,81.75048828
2022-12-14T04:08:05.009Z,81.95800781
2022-12-14T04:09:06.348Z,82.06176758
2022-12-14T04:10:06.982Z,82.16552734
2022-12-14T04:11:07.531Z,82.06176758
2022-12-14T04:12:08.103Z,82.06176758
2022-12-14T04:13:08.889Z,81.95800781
2022-12-14T04:14:09.411Z,82.06176758
2022-12-14T04:15:10.588Z,82.06176758
2022-12-14T04:16:11.325Z,82.16552734
2022-12-14T04:17:11.860Z,82.26928711
2022-12-14T04:18:13.310Z,82.26928711
2022-12-14T04:19:13.841Z,82.12890625
2022-12-14T04:20:14.462Z,82.02514648
2022-12-14T04:21:14.987Z,82.02514648
2022-12-14T04:22:15.543Z,82.23266602
2022-12-14T04:23:16.055Z,82.12890625
2022-12-14T04:24:16.614Z,82.23266602
2022-12-14T04:25:18.227Z,82.33642578
2022-12-14T04:26:18.781Z,82.44628906
2022-12-14T04:27:19.362Z,82.58666992
2022-12-14T04:28:19.971Z,82.79418945
2022-12-14T04:29:20.982Z,83.11157227
2022-12-14T04:30:52.034Z,83.17871094
2022-12-14T04:31:52.754Z,83.17871094
2022-12-14T04:32:54.164Z,83.07495117
2022-12-14T04:33:54.631Z,83.07495117
2022-12-14T04:34:56.263Z,83.07495117
2022-12-14T04:35:56.796Z,83.17871094
2022-12-14T04:36:57.400Z,83.17871094
2022-12-14T04:37:58.001Z,83.07495117
2022-12-14T04:38:58.491Z,82.96508789
2022-12-14T04:39:59.072Z,83.07495117
2022-12-14T04:40:59.632Z,83.07495117
2022-12-14T04:42:00.312Z,83.17871094
2022-12-14T04:43:00.902Z,83.2824707
2022-12-14T04:44:01.398Z,83.2824707
2022-12-14T04:45:02.702Z,83.48999023
2022-12-14T04:46:03.258Z,83.70361328
2022-12-14T04:47:03.785Z,83.80737305
2022-12-14T04:48:04.369Z,84.01489258
2022-12-14T04:49:04.891Z,84.22241211
2022-12-14T04:50:05.505Z,84.43603516
2022-12-14T04:51:06.027Z,84.53979492
2022-12-14T04:52:06.584Z,84.53979492
2022-12-14T04:53:07.165Z,84.64355469
2022-12-14T04:54:07.700Z,84.74731445
2022-12-14T04:55:09.251Z,84.85107422
2022-12-14T04:56:09.785Z,84.9609375
2022-12-14T04:57:13.289Z,84.9609375
2022-12-14T04:58:10.980Z,84.9609375
2022-12-14T04:59:12.406Z,84.9609375
2022-12-14T05:00:12.997Z,85.06469727
2022-12-14T05:01:13.718Z,85.06469727
2022-12-14T05:02:14.288Z,85.06469727
2022-12-14T05:03:14.804Z,84.9609375
2022-12-14T05:04:15.308Z,84.81445313
2022-12-14T05:05:16.626Z,84.85107422
2022-12-14T05:06:17.195Z,84.9609375
2022-12-14T05:07:17.765Z,84.9609375
2022-12-14T05:08:18.307Z,84.91821289
2022-12-14T05:09:19.329Z,84.9609375
2022-12-14T05:10:20.401Z,85.06469727
2022-12-14T05:11:54.086Z,85.06469727
2022-12-14T05:12:51.922Z,85.16845703
2022-12-14T05:13:52.571Z,85.2722168
2022-12-14T05:14:53.855Z,85.37597656
2022-12-14T05:15:54.338Z,85.47973633
2022-12-14T05:16:55.031Z,85.58959961
2022-12-14T05:17:55.603Z,85.58959961
2022-12-14T05:18:56.152Z,85.47973633
2022-12-14T05:19:57.683Z,85.58959961
2022-12-14T05:20:58.238Z,85.69335938
2022-12-14T05:21:58.840Z,85.69335938
2022-12-14T05:22:59.416Z,85.69335938
2022-12-14T05:24:00.197Z,85.79711914
2022-12-14T05:25:01.344Z,85.79711914
2022-12-14T05:26:01.898Z,85.90087891
2022-12-14T05:27:02.407Z,85.90087891
2022-12-14T05:28:03.006Z,86.00463867
2022-12-14T05:29:03.594Z,86.10839844
2022-12-14T05:30:04.250Z,86.21826172
2022-12-14T05:31:04.909Z,85.96801758
2022-12-14T05:32:05.411Z,85.86425781
2022-12-14T05:33:05.998Z,85.75439453
2022-12-14T05:34:06.584Z,85.65063477
2022-12-14T05:35:07.172Z,85.546875
2022-12-14T05:36:07.729Z,85.546875
2022-12-14T05:37:10.511Z,85.79711914
2022-12-14T05:38:08.970Z,85.90087891
2022-12-14T05:39:09.485Z,86.00463867
2022-12-14T05:40:10.122Z,86.10839844
2022-12-14T05:41:10.731Z,86.10839844
2022-12-14T05:42:11.339Z,86.10839844
2022-12-14T05:43:11.944Z,86.00463867
2022-12-14T05:44:12.496Z,86.00463867
2022-12-14T05:45:13.892Z,86.10839844
2022-12-14T05:46:14.525Z,86.10839844
2022-12-14T05:47:15.845Z,86.21826172
2022-12-14T05:48:16.362Z,86.17553711
2022-12-14T05:49:17.068Z,85.86425781
2022-12-14T05:50:17.644Z,85.75439453
2022-12-14T05:51:18.183Z,85.75439453
2022-12-14T05:52:18.843Z,85.79711914
2022-12-14T05:53:19.412Z,86.00463867
2022-12-14T05:54:50.530Z,86.00463867
2022-12-14T05:55:51.607Z,86.10839844
2022-12-14T05:56:52.519Z,86.10839844
2022-12-14T05:57:53.073Z,86.32202148
2022-12-14T05:58:53.592Z,86.32202148
2022-12-14T05:59:54.323Z,86.38305664
2022-12-14T06:00:54.830Z,86.49291992
2022-12-14T06:01:55.406Z,86.38305664
2022-12-14T06:02:55.998Z,86.17553711
2022-12-14T06:03:56.615Z,85.86425781
2022-12-14T06:04:57.892Z,85.65063477
2022-12-14T06:05:58.347Z,85.65063477
2022-12-14T06:06:58.973Z,85.65063477
2022-12-14T06:07:59.587Z,85.65063477
2022-12-14T06:09:00.102Z,85.75439453
2022-12-14T06:10:00.830Z,85.65063477
2022-12-14T06:11:02.119Z,85.65063477
2022-12-14T06:12:02.729Z,85.75439453
2022-12-14T06:13:03.272Z,85.65063477
2022-12-14T06:14:03.806Z,85.546875
2022-12-14T06:15:05.407Z,85.546875
2022-12-14T06:16:05.899Z,85.546875
2022-12-14T06:17:06.519Z,85.546875
2022-12-14T06:18:07.043Z,85.51025391
2022-12-14T06:19:08.426Z,85.40649414
2022-12-14T06:20:09.040Z,85.29663086
2022-12-14T06:21:09.586Z,85.08911133
2022-12-14T06:22:10.293Z,85.08911133
2022-12-14T06:23:10.810Z,85.19287109
2022-12-14T06:24:11.467Z,86.03515625
2022-12-14T06:25:12.858Z,86.93237305
2022-12-14T06:26:13.352Z,87.45727539
2022-12-14T06:27:13.987Z,87.87841797
2022-12-14T06:28:14.498Z,87.98217773
2022-12-14T06:29:15.832Z,87.35351563
2022-12-14T06:30:16.368Z,86.82861328
2022-12-14T06:31:16.963Z,86.55395508
2022-12-14T06:32:17.488Z,86.34643555
2022-12-14T06:33:18.026Z,86.03515625
2022-12-14T06:34:19.195Z,85.8215332
2022-12-14T06:35:50.692Z,85.92529297
2022-12-14T06:36:51.204Z,85.71777344
2022-12-14T06:37:51.718Z,85.61401367
2022-12-14T06:38:52.479Z,85.61401367
2022-12-14T06:39:54.599Z,85.61401367
2022-12-14T06:40:53.642Z,85.61401367
2022-12-14T06:41:54.168Z,85.51025391
2022-12-14T06:42:54.685Z,85.29663086
2022-12-14T06:43:55.233Z,85.29663086
2022-12-14T06:44:55.748Z,85.19287109
2022-12-14T06:45:57.363Z,85.05249023
2022-12-14T06:46:57.832Z,84.94873047
2022-12-14T06:47:58.451Z,84.8449707
2022-12-14T06:48:59.005Z,84.73510742
2022-12-14T06:50:00.202Z,84.73510742
2022-12-14T06:51:00.809Z,84.73510742
2022-12-14T06:52:01.304Z,84.73510742
2022-12-14T06:53:01.923Z,84.73510742
2022-12-14T06:54:02.460Z,84.63134766
2022-12-14T06:55:03.098Z,84.63134766
2022-12-14T06:56:04.619Z,84.73510742
2022-12-14T06:57:05.099Z,84.8449707
2022-12-14T06:58:05.765Z,84.73510742
2022-12-14T06:59:06.292Z,84.73510742
2022-12-14T07:00:06.824Z,84.73510742
2022-12-14T07:01:07.537Z,84.63134766
2022-12-14T07:02:09.081Z,84.63134766
2022-12-14T07:03:09.600Z,84.63134766
2022-12-14T07:04:10.037Z,84.52758789
2022-12-14T07:05:10.704Z,84.52758789
2022-12-14T07:06:12.110Z,84.52758789
2022-12-14T07:07:12.716Z,84.42382813
2022-12-14T07:08:13.225Z,84.32006836
2022-12-14T07:09:13.786Z,84.11254883
2022-12-14T07:10:14.343Z,84.11254883
2022-12-14T07:11:14.874Z,84.11254883
2022-12-14T07:12:15.521Z,84.11254883
2022-12-14T07:13:16.096Z,84.11254883
2022-12-14T07:14:16.635Z,84.21630859
2022-12-14T07:15:17.196Z,84.21630859
2022-12-14T07:16:19.160Z,84.42382813
2022-12-14T07:17:50.088Z,84.42382813
2022-12-14T07:18:50.652Z,84.32006836
2022-12-14T07:19:51.225Z,84.32006836
2022-12-14T07:20:51.750Z,84.32006836
2022-12-14T07:21:52.741Z,84.21630859
2022-12-14T07:22:53.207Z,84.21630859
2022-12-14T07:23:53.769Z,84.32006836
2022-12-14T07:24:54.280Z,84.28344727
2022-12-14T07:25:55.590Z,84.38720703
2022-12-14T07:26:56.278Z,84.38720703
2022-12-14T07:27:56.755Z,84.38720703
2022-12-14T07:28:57.329Z,84.38720703
2022-12-14T07:29:57.945Z,84.38720703
2022-12-14T07:30:58.529Z,84.28344727
2022-12-14T07:31:59.114Z,84.28344727
2022-12-14T07:32:59.617Z,84.28344727
2022-12-14T07:34:00.337Z,84.28344727
2022-12-14T07:35:00.835Z,84.28344727
2022-12-14T07:36:02.104Z,84.32006836
2022-12-14T07:37:02.740Z,84.52758789
2022-12-14T07:38:03.234Z,84.73510742
2022-12-14T07:39:03.799Z,85.05249023
2022-12-14T07:40:04.400Z,85.15625
2022-12-14T07:41:04.925Z,85.26000977
2022-12-14T07:42:05.607Z,85.36376953
2022-12-14T07:43:06.094Z,85.36376953
2022-12-14T07:44:06.714Z,85.26000977
2022-12-14T07:45:07.209Z,85.26000977
2022-12-14T07:46:08.732Z,85.26000977
2022-12-14T07:47:12.570Z,85.26000977
2022-12-14T07:48:09.706Z,85.22338867
2022-12-14T07:49:11.357Z,85.11962891
2022-12-14T07:50:11.842Z,85.00976563
2022-12-14T07:51:12.398Z,84.90600586
2022-12-14T07:52:13.029Z,84.69848633
2022-12-14T07:53:13.528Z,84.59472656
2022-12-14T07:54:14.147Z,84.4909668
2022-12-14T07:55:14.698Z,84.59472656
2022-12-14T07:56:16.237Z,84.69848633
2022-12-14T07:57:16.822Z,84.69848633
2022-12-14T07:58:17.409Z,84.69848633
2022-12-14T07:59:17.952Z,85.00976563
2022-12-14T08:00:48.925Z,85.22338867
2022-12-14T08:01:50.459Z,85.11962891
2022-12-14T08:02:51.183Z,85.11962891
2022-12-14T08:03:51.548Z,85.11962891
2022-12-14T08:04:52.106Z,85.11962891
2022-12-14T08:05:53.321Z,85.00976563
2022-12-14T08:06:54.126Z,85.00976563
2022-12-14T08:07:54.375Z,85.00976563
2022-12-14T08:08:54.955Z,85.00976563
2022-12-14T08:09:55.454Z,84.80224609
2022-12-14T08:10:56.039Z,84.80224609
2022-12-14T08:11:56.572Z,84.80224609
2022-12-14T08:12:57.170Z,84.80224609
2022-12-14T08:13:57.771Z,84.69848633
2022-12-14T08:14:58.282Z,84.80224609
2022-12-14T08:15:59.984Z,84.80224609
2022-12-14T08:17:00.489Z,84.86938477
2022-12-14T08:18:01.962Z,84.97314453
2022-12-14T08:19:02.498Z,84.86938477
2022-12-14T08:20:03.012Z,84.765625
2022-12-14T08:21:03.676Z,84.765625
2022-12-14T08:22:04.224Z,84.765625
2022-12-14T08:23:04.837Z,84.66186523
2022-12-14T08:24:05.316Z,84.4543457
2022-12-14T08:25:06.008Z,84.24072266
2022-12-14T08:26:07.300Z,84.13696289
2022-12-14T08:27:07.830Z,84.13696289
2022-12-14T08:28:08.504Z,84.13696289
2022-12-14T08:29:09.826Z,84.13696289
2022-12-14T08:30:10.412Z,84.03320313
2022-12-14T08:31:11.089Z,83.99658203
2022-12-14T08:32:11.524Z,83.99658203
2022-12-14T08:33:12.144Z,83.99658203
2022-12-14T08:34:12.630Z,83.78295898
2022-12-14T08:35:13.253Z,83.78295898
2022-12-14T08:36:13.788Z,83.89282227
2022-12-14T08:37:14.958Z,84.1003418
2022-12-14T08:38:15.577Z,84.30786133
2022-12-14T08:39:16.046Z,84.41162109
2022-12-14T08:40:16.741Z,84.51538086
2022-12-14T08:41:48.444Z,84.72900391
2022-12-14T08:42:48.982Z,84.61914063
2022-12-14T08:43:49.497Z,84.72900391
2022-12-14T08:44:50.684Z,84.83276367
2022-12-14T08:45:51.221Z,84.93652344
2022-12-14T08:46:51.777Z,85.0402832
2022-12-14T08:47:52.533Z,85.14404297
2022-12-14T08:48:53.581Z,85.24780273
2022-12-14T08:49:54.151Z,85.45532227
2022-12-14T08:50:54.694Z,85.45532227
2022-12-14T08:51:55.309Z,85.45532227
2022-12-14T08:52:55.878Z,85.45532227
2022-12-14T08:53:56.392Z,85.55908203
2022-12-14T08:54:56.913Z,85.66894531
2022-12-14T08:55:57.425Z,85.66894531
2022-12-14T08:56:58.576Z,85.77270508
2022-12-14T08:57:59.246Z,85.87646484
2022-12-14T08:58:59.808Z,85.87646484
2022-12-14T09:00:02.059Z,85.98022461
2022-12-14T09:01:00.974Z,85.83374023
2022-12-14T09:02:01.534Z,85.72998047
2022-12-14T09:03:02.160Z,85.72998047
2022-12-14T09:04:02.526Z,85.83374023
2022-12-14T09:05:03.130Z,85.94360352
2022-12-14T09:06:04.323Z,86.04736328
2022-12-14T09:07:04.818Z,86.15112305
2022-12-14T09:08:06.302Z,86.25488281
2022-12-14T09:09:11.897Z,86.35864258
2022-12-14T09:10:07.374Z,86.56616211
2022-12-14T09:11:07.968Z,86.56616211
2022-12-14T09:12:08.720Z,86.46240234
2022-12-14T09:13:09.391Z,86.56616211
2022-12-14T09:14:10.009Z,86.46240234
2022-12-14T09:15:10.571Z,86.35864258
2022-12-14T09:16:11.934Z,86.25488281
2022-12-14T09:17:12.340Z,86.25488281
2022-12-14T09:18:12.968Z,86.25488281
2022-12-14T09:19:14.352Z,86.2121582
2022-12-14T09:20:14.925Z,86.2121582
2022-12-14T09:21:15.479Z,86.10839844
2022-12-14T09:22:16.061Z,86.10839844
2022-12-14T09:23:16.689Z,86.42578125
2022-12-14T09:24:48.003Z,86.84082031
2022-12-14T09:25:48.529Z,87.36572266
2022-12-14T09:26:49.573Z,87.98828125
2022-12-14T09:27:50.204Z,88.82446289
2022-12-14T09:28:50.812Z,89.20288086
2022-12-14T09:29:51.369Z,89.51416016
2022-12-14T09:30:51.994Z,89.30664063
2022-12-14T09:31:52.576Z,89.41040039
2022-12-14T09:32:54.213Z,89.51416016
2022-12-14T09:33:54.718Z,89.61791992
2022-12-14T09:34:55.444Z,89.82543945
2022-12-14T09:35:55.975Z,90.03295898
2022-12-14T09:36:57.064Z,90.03295898
2022-12-14T09:37:57.723Z,89.92919922
2022-12-14T09:38:58.322Z,89.99633789
2022-12-14T09:39:58.827Z,89.89257813
2022-12-14T09:40:59.306Z,89.78271484
2022-12-14T09:42:01.187Z,89.67895508
2022-12-14T09:43:00.460Z,89.78271484
2022-12-14T09:44:01.064Z,89.57519531
2022-12-14T09:45:01.695Z,89.26391602
2022-12-14T09:46:02.238Z,89.36767578
2022-12-14T09:47:03.603Z,89.47143555
2022-12-14T09:48:04.222Z,89.47143555
2022-12-14T09:49:04.742Z,89.36767578
2022-12-14T09:50:06.245Z,89.22119141
2022-12-14T09:51:06.750Z,89.11743164
2022-12-14T09:52:07.351Z,88.90991211
2022-12-14T09:53:07.936Z,88.80615234
2022-12-14T09:54:08.437Z,88.70239258
2022-12-14T09:55:09.065Z,88.80615234
2022-12-14T09:56:09.590Z,88.49487305
2022-12-14T09:57:11.190Z,88.28735352
2022-12-14T09:58:11.776Z,88.07983398
2022-12-14T09:59:12.467Z,87.9699707
2022-12-14T10:00:13.085Z,88.07983398
2022-12-14T10:01:13.772Z,87.9699707
2022-12-14T10:02:30.194Z,87.86621094
2022-12-14T10:03:14.949Z,87.76245117
2022-12-14T10:04:15.525Z,87.55493164
2022-12-14T10:05:15.990Z,87.55493164
2022-12-14T10:06:16.602Z,87.40844727
2022-12-14T10:07:48.364Z,87.40844727
2022-12-14T10:08:54.403Z,87.40844727
2022-12-14T10:09:50.063Z,87.40844727
2022-12-14T10:10:50.796Z,87.40844727
2022-12-14T10:11:51.244Z,87.20092773
2022-12-14T10:12:51.781Z,87.09716797
2022-12-14T10:13:52.554Z,86.88964844
2022-12-14T10:14:53.584Z,86.88964844
2022-12-14T10:15:54.275Z,86.88964844
2022-12-14T10:16:55.414Z,86.88964844
2022-12-14T10:17:55.932Z,86.78588867
2022-12-14T10:19:00.081Z,86.74926758
2022-12-14T10:19:57.144Z,86.64550781
2022-12-14T10:20:57.750Z,86.43188477
2022-12-14T10:21:58.228Z,86.43188477
2022-12-14T10:22:58.804Z,86.53564453
2022-12-14T10:23:59.350Z,86.43188477
2022-12-14T10:25:00.819Z,86.43188477
2022-12-14T10:26:01.476Z,86.53564453
2022-12-14T10:27:01.980Z,86.64550781
2022-12-14T10:28:10.778Z,86.64550781
2022-12-14T10:29:04.061Z,86.53564453
2022-12-14T10:30:04.684Z,86.53564453
2022-12-14T10:31:05.219Z,86.85302734
2022-12-14T10:32:05.769Z,86.85302734
2022-12-14T10:33:06.269Z,86.74926758
2022-12-14T10:34:12.013Z,86.64550781
2022-12-14T10:35:07.426Z,86.64550781
2022-12-14T10:36:08.109Z,86.70654297
2022-12-14T10:37:09.270Z,86.6027832
2022-12-14T10:38:09.833Z,86.39526367
2022-12-14T10:39:10.326Z,86.08398438
2022-12-14T10:40:15.772Z,85.87646484
2022-12-14T10:41:12.267Z,85.77270508
2022-12-14T10:42:12.724Z,85.66894531
2022-12-14T10:43:13.293Z,85.55908203
2022-12-14T10:44:13.776Z,85.55908203
2022-12-14T10:45:39.821Z,85.55908203
2022-12-14T10:46:15.203Z,85.60180664
2022-12-14T10:47:16.619Z,85.60180664
2022-12-14T10:48:48.344Z,85.60180664
2022-12-14T10:49:48.929Z,85.60180664
2022-12-14T10:50:49.938Z,85.70556641
2022-12-14T10:51:50.127Z,85.80932617
2022-12-14T10:52:50.673Z,85.80932617
2022-12-14T10:53:51.340Z,85.80932617
2022-12-14T10:54:51.935Z,85.80932617
2022-12-14T10:55:52.583Z,85.80932617
2022-12-14T10:56:53.958Z,85.91308594
2022-12-14T10:57:54.403Z,85.91308594
2022-12-14T10:58:54.989Z,85.91308594
2022-12-14T11:00:08.478Z,85.70556641
2022-12-14T11:00:56.221Z,85.70556641
2022-12-14T11:01:57.031Z,85.60180664
2022-12-14T11:02:57.541Z,85.49804688
2022-12-14T11:03:57.959Z,85.3515625